createdAt,value
2018-05-18T06:02:32.799Z,71.00
2018-05-18T08:58:58.139Z,64.40
2018-05-18T17:38:46.474Z,53.80
2018-05-18T17:41:17.304Z,53.90
2018-05-18T17:43:46.229Z,53.90
2018-05-18T17:46:14.716Z,54.00
2018-05-18T18:13:13.072Z,54.70
2018-05-18T18:15:41.412Z,54.70
2018-05-18T18:18:12.669Z,54.80
2018-05-18T18:39:10.082Z,55.30
2018-05-18T18:41:38.027Z,54.80
2018-05-18T18:44:05.644Z,55.50
2018-05-18T18:46:33.368Z,55.60
2018-05-18T19:21:59.617Z,57.30
2018-05-18T19:24:27.364Z,57.30
2018-05-18T19:26:55.836Z,57.50
2018-05-18T19:29:24.164Z,57.50
2018-05-18T19:31:51.889Z,57.30
2018-05-18T20:44:34.273Z,59.50
2018-05-18T21:42:27.863Z,62.10
2018-05-18T21:44:55.499Z,62.40
2018-05-18T22:04:32.513Z,62.20
2018-05-18T22:07:00.273Z,62.00
2018-05-18T22:09:27.844Z,62.10
2018-05-18T22:11:55.487Z,62.10
2018-05-18T22:31:35.398Z,62.60
2018-05-18T22:34:03.617Z,62.50
2018-05-18T22:36:32.085Z,62.80
2018-05-18T22:39:02.116Z,63.10
2018-05-18T22:41:31.351Z,62.90
2018-05-18T22:43:58.995Z,63.00
2018-05-18T22:46:27.388Z,63.10
2018-05-18T22:48:54.967Z,62.90
2018-05-18T22:51:23.309Z,63.10
2018-05-18T22:53:51.729Z,63.30
2018-05-18T22:56:25.225Z,63.30
2018-05-18T22:58:53.948Z,63.50
2018-05-18T23:01:24.168Z,63.70
2018-05-18T23:03:55.204Z,63.60
2018-05-18T23:06:23.851Z,63.60
2018-05-18T23:08:52.557Z,63.60
2018-05-18T23:11:23.521Z,63.70
2018-05-18T23:14:14.162Z,64.00
2018-05-18T23:16:47.885Z,63.90
2018-05-18T23:19:17.646Z,63.90
2018-05-18T23:21:46.345Z,64.00
2018-05-18T23:24:14.092Z,64.90
2018-05-18T23:26:49.365Z,64.10
2018-05-18T23:29:16.980Z,64.10
2018-05-18T23:31:59.634Z,64.00
2018-05-18T23:34:32.352Z,64.20
2018-05-18T23:37:06.325Z,64.30
2018-05-18T23:39:35.930Z,64.30
2018-05-18T23:42:10.481Z,64.20
2018-05-18T23:44:56.132Z,64.30
2018-05-18T23:47:24.949Z,64.30
2018-05-18T23:49:55.133Z,64.20
